Time;durP1;ratioP1;P1;durP2;ratioP2;P2;SDS_P1;SDS_P2;PMS_P1;PMS_P2;Temp;Humidity;BMP_temperature;BMP_pressure;BME280_temperature;BME280_humidity;BME280_pressure;Samples;Min_cycle;Max_cycle;Signal;HPM_P1;HPM_P2
2021/11/21 00:00:40;;;;;;;36.90;25.00;;;5.30;99.90;;;;;;5058294;28;20087;-87
2021/11/21 00:03:07;;;;;;;35.42;23.23;;;5.30;99.90;;;;;;5058086;28;20068;-88
2021/11/21 00:05:34;;;;;;;31.23;20.60;;;5.40;99.90;;;;;;5057835;28;20106;-88
2021/11/21 00:08:01;;;;;;;35.90;22.52;;;5.40;99.90;;;;;;5058056;28;20048;-88
2021/11/21 00:10:33;;;;;;;32.88;21.90;;;5.50;99.90;;;;;;5057851;28;20044;-87
2021/11/21 00:13:00;;;;;;;33.53;21.48;;;5.60;99.90;;;;;;5057663;28;20087;-88
2021/11/21 00:15:27;;;;;;;30.90;21.08;;;5.60;99.90;;;;;;5057263;28;20124;-87
2021/11/21 00:17:54;;;;;;;33.95;21.27;;;5.60;99.90;;;;;;5075181;28;20552;-88
2021/11/21 00:20:21;;;;;;;30.05;20.42;;;5.60;99.90;;;;;;5058153;28;20052;-87
2021/11/21 00:22:48;;;;;;;34.60;20.52;;;5.60;99.90;;;;;;5057793;28;20459;-87
2021/11/21 00:25:20;;;;;;;32.83;20.80;;;5.50;99.90;;;;;;5075838;28;20083;-87
2021/11/21 00:27:47;;;;;;;33.92;22.38;;;5.50;99.90;;;;;;5056430;28;20558;-88
2021/11/21 00:30:14;;;;;;;34.72;21.58;;;5.50;99.90;;;;;;5057985;28;20113;-88
2021/11/21 00:32:41;;;;;;;34.78;20.73;;;5.50;99.90;;;;;;5058243;28;20404;-88
2021/11/21 00:35:08;;;;;;;30.85;20.13;;;5.50;99.90;;;;;;5075370;28;20052;-88
2021/11/21 00:37:35;;;;;;;36.67;21.13;;;5.50;99.90;;;;;;5057674;28;20044;-88
2021/11/21 00:40:04;;;;;;;32.53;21.65;;;5.50;99.90;;;;;;5056454;28;20044;-88
2021/11/21 00:42:31;;;;;;;32.63;20.65;;;5.50;99.90;;;;;;5037765;28;20148;-87
2021/11/21 00:44:58;;;;;;;37.30;23.02;;;5.50;99.90;;;;;;5038119;28;20116;-87
2021/11/21 00:47:25;;;;;;;34.30;21.13;;;5.50;99.90;;;;;;5055507;28;20047;-88
2021/11/21 00:49:51;;;;;;;35.63;22.52;;;5.40;99.90;;;;;;5055241;28;20053;-88
2021/11/21 00:52:20;;;;;;;33.25;20.42;;;5.40;99.90;;;;;;5037883;28;20067;-88
2021/11/21 00:54:53;;;;;;;31.45;20.17;;;5.40;99.90;;;;;;5037816;28;20049;-87
2021/11/21 00:57:20;;;;;;;;;;;5.30;99.90;;;;;;5038298;28;20059;-87
2021/11/21 00:59:47;;;;;;;33.58;20.08;;;5.30;99.90;;;;;;5054996;28;20387;-87
2021/11/21 01:02:15;;;;;;;35.92;21.25;;;5.10;99.90;;;;;;5054993;28;20053;-88
2021/11/21 01:04:43;;;;;;;35.25;21.27;;;5.10;99.90;;;;;;5037662;28;20139;-88
2021/11/21 01:07:11;;;;;;;38.42;22.88;;;5.00;99.90;;;;;;5037790;28;20481;-88
2021/11/21 01:09:38;;;;;;;37.55;23.25;;;5.00;99.90;;;;;;5054717;28;20059;-87
2021/11/21 01:12:07;;;;;;;40.55;22.77;;;4.90;99.90;;;;;;5037215;28;20408;-87
2021/11/21 01:14:36;;;;;;;39.20;23.58;;;4.90;99.90;;;;;;5037460;28;20088;-88
2021/11/21 01:17:04;;;;;;;43.92;22.73;;;4.80;99.90;;;;;;5033605;28;20454;-88
2021/11/21 01:19:31;;;;;;;45.85;23.95;;;4.80;99.90;;;;;;5035040;28;20054;-89
2021/11/21 01:21:58;;;;;;;41.08;22.98;;;4.90;99.90;;;;;;5037590;28;20416;-88
2021/11/21 01:24:26;;;;;;;39.72;23.52;;;5.00;99.90;;;;;;5054509;28;20060;-88
2021/11/21 01:26:53;;;;;;;37.58;23.52;;;5.10;99.90;;;;;;5037358;28;20051;-91
2021/11/21 01:29:21;;;;;;;39.20;22.70;;;5.20;99.90;;;;;;5037246;28;20059;-88
2021/11/21 01:31:48;;;;;;;34.83;21.60;;;5.30;99.90;;;;;;5037044;28;20481;-88
2021/11/21 01:34:17;;;;;;;35.28;22.00;;;5.30;99.90;;;;;;5037199;28;20049;-88
2021/11/21 01:36:44;;;;;;;36.90;21.40;;;5.30;99.90;;;;;;5054479;28;20045;-87
2021/11/21 01:39:11;;;;;;;38.55;22.27;;;5.40;99.90;;;;;;5037122;28;20049;-89
2021/11/21 01:41:38;;;;;;;38.72;22.33;;;5.20;99.90;;;;;;5037136;28;20044;-88
2021/11/21 01:44:09;;;;;;;34.83;21.35;;;5.30;99.90;;;;;;5036883;28;20044;-87
2021/11/21 01:46:38;;;;;;;35.67;22.13;;;5.20;99.90;;;;;;5036932;28;20111;-88
2021/11/21 01:49:07;;;;;;;37.60;21.23;;;5.10;99.90;;;;;;5054094;28;20060;-88
2021/11/21 01:51:34;;;;;;;38.10;21.58;;;5.10;99.90;;;;;;5036875;28;20052;-88
2021/11/21 01:54:02;;;;;;;38.15;21.73;;;5.10;99.90;;;;;;5067748;28;20058;-88
2021/11/21 01:56:28;;;;;;;40.70;22.35;;;5.10;99.90;;;;;;5056781;28;20052;-88
2021/11/21 01:58:56;;;;;;;34.85;21.55;;;5.20;99.90;;;;;;5056495;28;20057;-88
2021/11/21 02:01:23;;;;;;;38.20;21.85;;;5.30;99.90;;;;;;5056726;28;20088;-88
2021/11/21 02:03:51;;;;;;;39.33;21.35;;;5.30;99.90;;;;;;5073843;28;20504;-88
2021/11/21 02:06:18;;;;;;;37.47;21.73;;;5.30;99.90;;;;;;5072929;28;20044;-88
2021/11/21 02:08:46;;;;;;;37.47;21.52;;;5.40;99.90;;;;;;5056341;28;20502;-88
2021/11/21 02:11:12;;;;;;;36.38;21.35;;;5.50;99.90;;;;;;5056664;28;20122;-89
2021/11/21 02:13:40;;;;;;;35.22;21.48;;;5.50;99.90;;;;;;5056151;28;20079;-88
2021/11/21 02:16:08;;;;;;;37.42;21.10;;;5.70;99.90;;;;;;5074019;28;20136;-87
2021/11/21 02:18:35;;;;;;;32.72;19.75;;;5.70;99.90;;;;;;5056673;28;20052;-87
2021/11/21 02:21:02;;;;;;;34.50;20.52;;;5.80;99.90;;;;;;5056735;28;20040;-88
2021/11/21 02:23:30;;;;;;;33.72;20.23;;;5.80;99.90;;;;;;5046937;28;20058;-87
2021/11/21 02:25:57;;;;;;;34.25;19.83;;;5.80;99.90;;;;;;5036312;28;20423;-89
2021/11/21 02:28:23;;;;;;;32.25;19.75;;;5.90;99.90;;;;;;5036596;28;20067;-88
2021/11/21 02:30:51;;;;;;;35.38;20.35;;;5.90;99.90;;;;;;5036739;28;20048;-87
2021/11/21 02:33:20;;;;;;;33.70;19.73;;;5.90;99.90;;;;;;5036439;28;20436;-89
2021/11/21 02:35:51;;;;;;;30.85;19.05;;;5.80;99.90;;;;;;5036554;28;20136;-89
2021/11/21 02:38:20;;;;;;;35.60;19.27;;;5.80;99.90;;;;;;5036276;28;20048;-89
2021/11/21 02:40:47;;;;;;;31.88;18.88;;;5.80;99.90;;;;;;5066967;28;20049;-88
2021/11/21 02:43:16;;;;;;;34.97;19.45;;;5.80;99.90;;;;;;5056383;28;20043;-89
2021/11/21 02:45:45;;;;;;;30.30;17.98;;;5.80;99.90;;;;;;5054818;28;20412;-89
2021/11/21 02:48:15;;;;;;;28.17;17.40;;;5.80;99.90;;;;;;5036239;28;20075;-88
2021/11/21 02:50:42;;;;;;;32.28;19.35;;;5.80;99.90;;;;;;5037289;28;20135;-88
2021/11/21 02:53:10;;;;;;;30.35;18.80;;;5.90;99.90;;;;;;5036252;28;20076;-89
2021/11/21 02:55:37;;;;;;;29.58;18.63;;;5.80;99.90;;;;;;5036046;28;20081;-88
2021/11/21 02:58:05;;;;;;;28.73;17.75;;;5.80;99.90;;;;;;5036152;28;20049;-88
2021/11/21 03:00:34;;;;;;;31.50;18.50;;;5.80;99.90;;;;;;5036302;28;20412;-89
2021/11/21 03:03:02;;;;;;;30.42;18.80;;;5.80;99.90;;;;;;5036033;28;20060;-87
2021/11/21 03:05:33;;;;;;;31.00;19.20;;;5.80;99.90;;;;;;5036037;28;20049;-90
2021/11/21 03:08:00;;;;;;;33.53;19.17;;;5.90;99.90;;;;;;5036066;28;20390;-88
2021/11/21 03:10:28;;;;;;;32.95;19.30;;;5.90;99.90;;;;;;5053318;28;20048;-87
2021/11/21 03:12:58;;;;;;;31.75;18.45;;;5.90;99.90;;;;;;5036033;28;20053;-87
2021/11/21 03:15:25;;;;;;;29.02;18.55;;;5.90;99.90;;;;;;5035771;28;20132;-87
2021/11/21 03:17:53;;;;;;;30.15;17.92;;;5.90;99.90;;;;;;5035324;28;20059;-87
2021/11/21 03:20:29;;;;;;;34.35;18.48;;;5.90;99.90;;;;;;5035683;28;20049;-87
2021/11/21 03:22:58;;;;;;;27.05;17.23;;;5.90;99.90;;;;;;5051217;28;20050;-87
2021/11/21 03:25:26;;;;;;;31.02;19.13;;;6.00;99.90;;;;;;5074605;28;20050;-88
2021/11/21 03:27:53;;;;;;;28.10;17.95;;;6.00;99.90;;;;;;5059423;28;20133;-88
2021/11/21 03:30:22;;;;;;;32.10;19.15;;;6.00;99.90;;;;;;5059165;28;20048;-86
2021/11/21 03:32:50;;;;;;;29.65;18.33;;;6.00;99.90;;;;;;5059462;28;20048;-87
2021/11/21 03:35:17;;;;;;;34.97;19.40;;;6.00;99.90;;;;;;5076648;28;20411;-89
2021/11/21 03:37:45;;;;;;;30.48;17.88;;;6.00;99.90;;;;;;5055679;28;20603;-87
2021/11/21 03:40:14;;;;;;;33.95;19.00;;;6.00;99.90;;;;;;5059087;28;20077;-87
2021/11/21 03:42:41;;;;;;;34.88;19.25;;;6.00;99.90;;;;;;5059151;28;20171;-87
2021/11/21 03:45:09;;;;;;;33.03;18.73;;;6.00;99.90;;;;;;5058982;28;20098;-88
2021/11/21 03:47:36;;;;;;;27.90;17.73;;;6.00;99.90;;;;;;5076675;28;20041;-87
2021/11/21 03:50:04;;;;;;;30.73;18.00;;;6.00;99.90;;;;;;5076542;28;20056;-87
2021/11/21 03:52:31;;;;;;;34.70;19.38;;;6.00;99.90;;;;;;5075316;28;20448;-87
2021/11/21 03:54:57;;;;;;;29.52;17.65;;;6.00;99.90;;;;;;5058641;28;20078;-88
2021/11/21 03:57:24;;;;;;;28.80;18.40;;;6.00;99.90;;;;;;5058923;28;20113;-87
2021/11/21 03:59:51;;;;;;;31.35;18.05;;;6.00;99.90;;;;;;5050885;28;20045;-88
2021/11/21 04:02:18;;;;;;;29.20;17.40;;;6.00;99.90;;;;;;5038601;28;20564;-87
2021/11/21 04:04:45;;;;;;;27.85;17.08;;;6.00;99.90;;;;;;5038764;28;20045;-88
2021/11/21 04:07:11;;;;;;;29.77;17.73;;;6.00;99.90;;;;;;5054915;28;20055;-88
2021/11/21 04:09:38;;;;;;;26.25;16.98;;;6.00;99.90;;;;;;5056045;28;20236;-88
2021/11/21 04:12:06;;;;;;;28.83;16.67;;;6.00;99.90;;;;;;5056039;28;20048;-87
2021/11/21 04:14:33;;;;;;;28.63;16.75;;;5.90;99.90;;;;;;5055225;28;20049;-88
2021/11/21 04:16:59;;;;;;;30.00;16.65;;;5.90;99.90;;;;;;5054299;28;20073;-88
2021/11/21 04:19:26;;;;;;;30.75;17.65;;;5.90;99.90;;;;;;5054977;28;20080;-87
2021/11/21 04:21:53;;;;;;;29.42;17.13;;;5.90;99.90;;;;;;5055028;28;20045;-87
2021/11/21 04:24:20;;;;;;;26.60;16.33;;;5.90;99.90;;;;;;5057779;28;20051;-87
2021/11/21 04:26:48;;;;;;;27.60;16.95;;;5.80;99.90;;;;;;5075861;28;20059;-89
2021/11/21 04:29:15;;;;;;;29.50;18.42;;;5.80;99.90;;;;;;5058432;28;20055;-88
2021/11/21 04:31:42;;;;;;;31.00;17.83;;;5.80;99.90;;;;;;5057928;28;20045;-88
2021/11/21 04:34:08;;;;;;;29.05;18.70;;;5.70;99.90;;;;;;5057834;28;20052;-88
2021/11/21 04:36:35;;;;;;;29.95;17.58;;;5.70;99.90;;;;;;5057804;28;20052;-87
2021/11/21 04:39:04;;;;;;;28.75;18.05;;;5.60;99.90;;;;;;5058209;28;20150;-88
2021/11/21 04:41:31;;;;;;;29.10;18.35;;;5.60;99.90;;;;;;5057889;28;20106;-90
2021/11/21 04:43:58;;;;;;;29.25;17.33;;;5.60;99.90;;;;;;5058002;28;20041;-88
2021/11/21 04:46:25;;;;;;;28.65;17.95;;;5.60;99.90;;;;;;5057633;28;20054;-87
2021/11/21 04:48:52;;;;;;;25.15;16.60;;;5.50;99.90;;;;;;5056466;28;20048;-87
2021/11/21 04:51:19;;;;;;;28.05;17.13;;;5.60;99.90;;;;;;5075107;28;20587;-88
2021/11/21 04:53:46;;;;;;;26.85;16.58;;;5.50;99.90;;;;;;5075122;28;20059;-88
2021/11/21 04:56:13;;;;;;;27.75;16.75;;;5.50;99.90;;;;;;5057682;28;20049;-88
2021/11/21 04:58:40;;;;;;;27.95;16.65;;;5.50;99.90;;;;;;5075205;28;20040;-88
2021/11/21 05:01:07;;;;;;;31.25;17.33;;;5.50;99.90;;;;;;5053683;28;20092;-88
2021/11/21 05:03:34;;;;;;;26.05;16.27;;;5.50;99.90;;;;;;5054948;28;20048;-89
2021/11/21 05:06:00;;;;;;;25.58;16.50;;;5.50;99.90;;;;;;5053935;28;20059;-87
2021/11/21 05:08:27;;;;;;;24.95;16.10;;;5.50;99.90;;;;;;5053892;28;20049;-87
2021/11/21 05:10:54;;;;;;;27.38;16.77;;;5.50;99.90;;;;;;5054155;28;20389;-88
2021/11/21 05:13:20;;;;;;;26.73;16.38;;;5.50;99.90;;;;;;5053969;28;20404;-87
2021/11/21 05:15:47;;;;;;;25.42;16.13;;;5.50;99.90;;;;;;5054182;28;20499;-88
2021/11/21 05:18:14;;;;;;;26.40;16.40;;;5.50;99.90;;;;;;5073141;28;20143;-88
2021/11/21 05:20:41;;;;;;;24.77;15.70;;;5.50;99.90;;;;;;5056782;28;20124;-87
2021/11/21 05:23:07;;;;;;;24.10;15.85;;;5.50;99.90;;;;;;5074793;28;20048;-88
2021/11/21 05:25:34;;;;;;;23.92;15.32;;;5.50;99.90;;;;;;5057257;28;20086;-88
2021/11/21 05:28:01;;;;;;;25.25;15.52;;;5.50;99.90;;;;;;5074421;28;20041;-88
2021/11/21 05:30:28;;;;;;;24.42;15.23;;;5.50;99.90;;;;;;5056941;28;20506;-88
2021/11/21 05:32:55;;;;;;;25.13;15.68;;;5.50;99.90;;;;;;5074707;28;20463;-88
2021/11/21 05:35:22;;;;;;;26.13;16.00;;;5.50;99.90;;;;;;5057281;28;20087;-87
2021/11/21 05:37:51;;;;;;;22.60;15.52;;;5.50;99.90;;;;;;5056816;28;20047;-88
2021/11/21 05:40:19;;;;;;;23.58;15.80;;;5.50;99.90;;;;;;5057091;28;20080;-87
2021/11/21 05:42:46;;;;;;;22.40;15.07;;;5.50;99.90;;;;;;5056988;28;20048;-88
2021/11/21 05:45:13;;;;;;;22.92;14.93;;;5.50;99.90;;;;;;5074382;28;20055;-87
2021/11/21 05:47:41;;;;;;;22.83;15.25;;;5.50;99.90;;;;;;5056180;28;20083;-87
2021/11/21 05:50:12;;;;;;;25.58;15.93;;;5.50;99.90;;;;;;5056465;28;20044;-88
2021/11/21 05:52:41;;;;;;;23.48;14.75;;;5.50;99.90;;;;;;5057004;28;20056;-88
2021/11/21 05:55:08;;;;;;;21.92;14.57;;;5.50;99.90;;;;;;5074093;28;20144;-87
2021/11/21 05:57:36;;;;;;;23.58;14.40;;;5.50;99.90;;;;;;5056514;28;20044;-88
2021/11/21 06:00:09;;;;;;;20.73;13.95;;;5.50;99.90;;;;;;5056729;28;20044;-87
2021/11/21 06:02:35;;;;;;;24.92;15.50;;;5.50;99.90;;;;;;5056460;28;20561;-87
2021/11/21 06:05:03;;;;;;;19.25;13.20;;;5.50;99.90;;;;;;5056644;28;20058;-87
2021/11/21 06:07:29;;;;;;;20.75;14.23;;;5.60;99.90;;;;;;5056214;28;20047;-88
2021/11/21 06:09:56;;;;;;;22.25;14.63;;;5.60;99.90;;;;;;5056608;28;20048;-87
2021/11/21 06:12:23;;;;;;;19.85;12.95;;;5.60;99.90;;;;;;5073788;28;20460;-87
2021/11/21 06:14:50;;;;;;;18.10;12.38;;;5.60;99.90;;;;;;5056342;28;20044;-87
2021/11/21 06:17:16;;;;;;;18.10;13.07;;;5.60;99.90;;;;;;5067022;28;20049;-87
2021/11/21 06:19:46;;;;;;;21.98;13.63;;;5.60;99.90;;;;;;5052215;28;20191;-87
2021/11/21 06:22:13;;;;;;;18.45;12.13;;;5.60;99.90;;;;;;5053834;28;20113;-86
2021/11/21 06:24:40;;;;;;;19.52;12.60;;;5.70;99.90;;;;;;5051856;28;20057;-87
2021/11/21 06:27:07;;;;;;;16.77;11.88;;;5.70;99.90;;;;;;5047466;28;20072;-88
2021/11/21 06:29:34;;;;;;;18.20;12.20;;;5.70;99.90;;;;;;5052988;28;20055;-87
2021/11/21 06:32:00;;;;;;;17.60;12.45;;;5.70;99.90;;;;;;5046164;28;20049;-87
2021/11/21 06:34:28;;;;;;;18.10;12.68;;;5.70;99.90;;;;;;5052511;28;20467;-87
2021/11/21 06:36:55;;;;;;;17.92;12.18;;;5.70;99.90;;;;;;5045177;28;20075;-87
2021/11/21 06:39:22;;;;;;;18.95;13.13;;;5.70;99.90;;;;;;5052996;28;20053;-87
2021/11/21 06:41:48;;;;;;;21.02;12.75;;;5.70;99.90;;;;;;5052861;28;20049;-87
2021/11/21 06:44:16;;;;;;;19.40;12.13;;;5.70;99.90;;;;;;5052307;28;20055;-87
2021/11/21 06:46:43;;;;;;;17.88;12.25;;;5.80;99.90;;;;;;5053953;28;20087;-87
2021/11/21 06:49:09;;;;;;;21.23;14.45;;;5.80;99.90;;;;;;5047097;28;20059;-87
2021/11/21 06:51:41;;;;;;;21.20;14.88;;;5.80;99.90;;;;;;5052344;28;20047;-87
2021/11/21 06:54:08;;;;;;;20.58;13.65;;;5.80;99.90;;;;;;5046990;28;20053;-87
2021/11/21 06:56:40;;;;;;;18.27;13.60;;;5.80;99.90;;;;;;5044889;28;20421;-87
2021/11/21 06:59:07;;;;;;;19.35;14.40;;;5.80;99.90;;;;;;5037036;28;20137;-87
2021/11/21 07:01:34;;;;;;;21.33;13.60;;;5.80;99.90;;;;;;5057093;28;20075;-87
2021/11/21 07:04:01;;;;;;;20.33;13.80;;;5.90;99.90;;;;;;5056774;28;20477;-87
2021/11/21 07:06:34;;;;;;;20.98;12.93;;;6.00;99.90;;;;;;5039056;28;20056;-87
2021/11/21 07:09:02;;;;;;;23.15;13.93;;;6.00;99.90;;;;;;5057234;28;20124;-87
2021/11/21 07:11:29;;;;;;;19.50;12.80;;;6.00;99.90;;;;;;5057060;28;20412;-87
2021/11/21 07:13:56;;;;;;;17.88;12.10;;;6.00;99.90;;;;;;5039213;28;20132;-86
2021/11/21 07:16:23;;;;;;;19.85;13.75;;;6.00;99.90;;;;;;5036771;28;20053;-87
2021/11/21 07:18:50;;;;;;;19.00;13.95;;;6.00;99.90;;;;;;5039346;28;20056;-87
2021/11/21 07:21:17;;;;;;;18.05;11.27;;;6.00;99.90;;;;;;5039373;28;20084;-87
2021/11/21 07:23:44;;;;;;;24.40;15.52;;;6.00;99.90;;;;;;5039517;28;20136;-87
2021/11/21 07:26:12;;;;;;;18.90;12.95;;;6.10;99.90;;;;;;5039041;28;20049;-87
2021/11/21 07:28:39;;;;;;;16.73;11.88;;;6.00;99.90;;;;;;5056472;28;20045;-87
2021/11/21 07:31:06;;;;;;;21.83;12.45;;;6.00;99.90;;;;;;5056861;28;20499;-88
2021/11/21 07:33:33;;;;;;;17.80;11.50;;;6.00;99.90;;;;;;5038972;28;20485;-88
2021/11/21 07:36:00;;;;;;;16.33;11.52;;;6.00;99.90;;;;;;5038559;28;20055;-87
2021/11/21 07:38:27;;;;;;;18.77;13.95;;;6.00;99.90;;;;;;5038983;28;20041;-87
2021/11/21 07:40:54;;;;;;;17.25;12.75;;;6.10;99.90;;;;;;5038750;28;20059;-87
2021/11/21 07:43:21;;;;;;;21.05;12.93;;;6.10;99.90;;;;;;5038856;28;20132;-87
2021/11/21 07:45:49;;;;;;;16.75;12.07;;;6.20;99.90;;;;;;5038477;28;20049;-87
2021/11/21 07:48:16;;;;;;;15.55;11.35;;;6.20;99.90;;;;;;5053909;28;20048;-88
2021/11/21 07:50:43;;;;;;;13.70;10.35;;;6.20;99.90;;;;;;5056020;28;20063;-87
2021/11/21 07:53:09;;;;;;;16.80;11.18;;;6.10;99.90;;;;;;5055788;28;20059;-87
2021/11/21 07:55:36;;;;;;;18.13;10.95;;;6.20;99.90;;;;;;5034077;28;20053;-86
2021/11/21 07:58:03;;;;;;;14.60;11.00;;;6.30;99.90;;;;;;5038164;28;20140;-87
2021/11/21 08:00:30;;;;;;;16.70;10.95;;;6.40;99.90;;;;;;5038384;28;20236;-87
2021/11/21 08:02:57;;;;;;;15.35;10.63;;;6.40;99.90;;;;;;5039363;28;20050;-87
2021/11/21 08:05:24;;;;;;;15.88;11.20;;;6.40;99.90;;;;;;5035264;28;20073;-87
2021/11/21 08:07:51;;;;;;;12.30;9.57;;;6.40;99.90;;;;;;5036278;28;20049;-86
2021/11/21 08:10:19;;;;;;;13.10;9.43;;;6.40;99.90;;;;;;5037231;28;20056;-87
2021/11/21 08:12:46;;;;;;;12.32;9.70;;;6.40;99.90;;;;;;5036385;28;20136;-87
2021/11/21 08:15:14;;;;;;;14.52;9.95;;;6.50;99.90;;;;;;5038400;28;20049;-87
2021/11/21 08:17:41;;;;;;;14.13;9.50;;;6.50;99.90;;;;;;5044313;28;20060;-87
2021/11/21 08:20:08;;;;;;;15.35;10.75;;;6.50;99.90;;;;;;5069310;28;20068;-87
2021/11/21 08:22:36;;;;;;;14.85;9.93;;;6.50;99.90;;;;;;5043058;28;20156;-87
2021/11/21 08:25:04;;;;;;;14.75;10.23;;;6.50;99.90;;;;;;5037892;28;20505;-87
2021/11/21 08:27:31;;;;;;;13.18;9.43;;;6.60;99.90;;;;;;5055626;28;20045;-87
2021/11/21 08:29:58;;;;;;;14.73;9.77;;;6.50;99.90;;;;;;5038271;28;20045;-87
2021/11/21 08:32:24;;;;;;;16.77;10.02;;;6.50;99.90;;;;;;5037917;28;20053;-87
2021/11/21 08:34:51;;;;;;;15.38;10.43;;;6.60;99.90;;;;;;5055474;28;20152;-88
2021/11/21 08:37:18;;;;;;;16.13;9.65;;;6.60;99.90;;;;;;5055254;28;20063;-88
2021/11/21 08:39:45;;;;;;;13.90;8.88;;;6.60;99.90;;;;;;5055319;28;20059;-88
2021/11/21 08:42:12;;;;;;;11.15;8.55;;;6.70;99.90;;;;;;5055661;28;20055;-87
2021/11/21 08:44:39;;;;;;;12.43;8.93;;;6.70;99.90;;;;;;5037461;28;20055;-88
2021/11/21 08:47:06;;;;;;;11.68;8.88;;;6.80;99.90;;;;;;5055049;28;20059;-88
2021/11/21 08:49:33;;;;;;;12.90;9.52;;;6.80;99.90;;;;;;5038070;28;20477;-87
2021/11/21 08:52:00;;;;;;;11.88;8.80;;;6.90;99.90;;;;;;5055091;28;20049;-88
2021/11/21 08:54:27;;;;;;;10.88;8.45;;;6.90;99.90;;;;;;5037523;28;20378;-88
2021/11/21 08:56:54;;;;;;;9.73;7.97;;;6.90;99.90;;;;;;5037563;28;20049;-88
2021/11/21 08:59:21;;;;;;;11.65;8.48;;;7.00;99.90;;;;;;5055201;28;20088;-88
2021/11/21 09:01:48;;;;;;;12.27;8.82;;;6.90;99.90;;;;;;5037480;28;20542;-88
2021/11/21 09:04:15;;;;;;;13.93;9.00;;;7.00;99.90;;;;;;5037425;28;20049;-88
2021/11/21 09:06:44;;;;;;;14.55;8.55;;;7.00;99.90;;;;;;5054584;28;20045;-88
2021/11/21 09:09:11;;;;;;;11.32;8.68;;;7.00;99.90;;;;;;5054819;28;20060;-88
2021/11/21 09:11:38;;;;;;;13.35;9.27;;;7.00;99.90;;;;;;5074274;28;20056;-88
2021/11/21 09:14:06;;;;;;;13.38;9.35;;;7.00;99.90;;;;;;5057460;28;20045;-88
2021/11/21 09:16:33;;;;;;;12.13;9.07;;;7.00;99.90;;;;;;5074325;28;20055;-87
2021/11/21 09:19:00;;;;;;;12.05;9.10;;;7.00;99.90;;;;;;5074686;28;20044;-88
2021/11/21 09:21:27;;;;;;;10.93;8.98;;;7.10;99.90;;;;;;5057127;28;20044;-89
2021/11/21 09:23:54;;;;;;;12.40;8.80;;;7.10;99.90;;;;;;5049258;28;20037;-88
2021/11/21 09:26:21;;;;;;;22.85;9.85;;;7.10;99.90;;;;;;5052146;28;20412;-88
2021/11/21 09:28:48;;;;;;;13.13;8.88;;;7.10;99.90;;;;;;5052616;28;20058;-88
2021/11/21 09:31:15;;;;;;;12.48;8.75;;;7.10;99.90;;;;;;5071561;28;20562;-88
2021/11/21 09:33:42;;;;;;;13.35;9.10;;;7.20;99.90;;;;;;5054906;28;20197;-87
2021/11/21 09:36:10;;;;;;;11.88;9.23;;;7.20;99.90;;;;;;5056403;28;20464;-87
2021/11/21 09:38:37;;;;;;;11.60;8.98;;;7.20;99.90;;;;;;5074000;28;20519;-88
2021/11/21 09:41:04;;;;;;;12.68;9.40;;;7.30;99.90;;;;;;5056516;28;20072;-88
2021/11/21 09:43:32;;;;;;;12.48;9.02;;;7.30;99.90;;;;;;5056535;28;20049;-88
2021/11/21 09:46:00;;;;;;;13.75;9.52;;;7.30;99.90;;;;;;5056182;28;20048;-87
2021/11/21 09:48:32;;;;;;;12.95;8.88;;;7.30;99.90;;;;;;5056240;28;20045;-87
2021/11/21 09:51:00;;;;;;;11.85;8.98;;;7.30;99.90;;;;;;5073620;28;20136;-86
2021/11/21 09:53:28;;;;;;;10.32;8.43;;;7.30;99.90;;;;;;5056432;28;20373;-88
2021/11/21 09:55:55;;;;;;;12.68;8.55;;;7.30;99.90;;;;;;5056188;28;20449;-89
2021/11/21 09:58:23;;;;;;;11.45;8.77;;;7.30;99.90;;;;;;5055049;28;20048;-87
2021/11/21 10:00:50;;;;;;;11.98;8.50;;;7.30;99.90;;;;;;5073364;28;20048;-88
2021/11/21 10:03:18;;;;;;;10.10;7.97;;;7.30;99.90;;;;;;5056403;28;20048;-88
2021/11/21 10:05:49;;;;;;;11.85;8.68;;;7.30;99.90;;;;;;5055904;28;20053;-87
2021/11/21 10:08:22;;;;;;;9.43;7.35;;;7.30;99.90;;;;;;5056274;28;20105;-87
2021/11/21 10:10:55;;;;;;;10.85;8.30;;;7.30;99.90;;;;;;5073151;28;20123;-87
2021/11/21 10:13:27;;;;;;;9.93;7.45;;;7.40;99.90;;;;;;5071884;28;20048;-88
2021/11/21 10:15:56;;;;;;;12.15;7.88;;;7.40;99.90;;;;;;5071425;28;20131;-87
2021/11/21 10:18:23;;;;;;;10.32;7.63;;;7.40;99.90;;;;;;5055228;28;20060;-88
2021/11/21 10:20:50;;;;;;;10.70;7.93;;;7.50;99.90;;;;;;5072640;28;20416;-87
2021/11/21 10:23:19;;;;;;;11.10;8.00;;;7.40;99.90;;;;;;5072983;28;20424;-86
2021/11/21 10:25:51;;;;;;;8.77;7.00;;;7.50;99.90;;;;;;5072821;28;20054;-88
2021/11/21 10:28:31;;;;;;;10.15;6.72;;;7.50;99.90;;;;;;5073070;28;20091;-87
2021/11/21 10:31:03;;;;;;;12.32;7.95;;;7.50;99.90;;;;;;5055144;28;20052;-88
2021/11/21 10:33:33;;;;;;;11.82;9.25;;;7.60;99.90;;;;;;5055560;28;20556;-88
2021/11/21 10:36:07;;;;;;;8.70;7.05;;;7.60;99.90;;;;;;5076747;28;20044;-87
2021/11/21 10:38:40;;;;;;;10.52;7.70;;;7.60;99.90;;;;;;5077247;28;20071;-88
2021/11/21 10:41:10;;;;;;;9.27;7.13;;;7.60;99.90;;;;;;5059072;28;20052;-88
2021/11/21 10:43:46;;;;;;;9.18;6.85;;;7.70;99.90;;;;;;5059049;28;20049;-88
2021/11/21 10:46:39;;;;;;;10.57;7.15;;;7.70;99.90;;;;;;5076331;28;20070;-88
2021/11/21 10:49:19;;;;;;;8.68;7.18;;;7.70;99.90;;;;;;5076756;28;20095;-88
2021/11/21 10:51:49;;;;;;;15.30;7.75;;;7.70;99.90;;;;;;5058829;28;20049;-88
2021/11/21 10:54:21;;;;;;;9.30;7.38;;;7.60;99.90;;;;;;5059073;28;20048;-87
2021/11/21 10:56:51;;;;;;;8.77;6.60;;;7.60;99.90;;;;;;5059139;28;20153;-88
2021/11/21 11:00:00;;;;;;;8.10;6.72;;;7.50;99.90;;;;;;5076951;28;20050;-88
2021/11/21 11:02:36;;;;;;;8.05;6.63;;;7.50;99.90;;;;;;4937286;29;20432;-88
2021/11/21 11:05:08;;;;;;;9.27;6.70;;;7.60;99.90;;;;;;4938581;29;20115;-88
2021/11/21 11:07:42;;;;;;;8.75;7.22;;;7.60;99.90;;;;;;5019395;28;20485;-88
2021/11/21 11:10:23;;;;;;;8.07;6.90;;;7.70;99.90;;;;;;5074889;28;20070;-87
2021/11/21 11:12:58;;;;;;;9.05;7.22;;;7.70;99.90;;;;;;5059233;28;20488;-88
2021/11/21 11:15:27;;;;;;;8.95;6.68;;;7.70;99.90;;;;;;5058836;28;20139;-87
2021/11/21 11:17:53;;;;;;;9.18;6.85;;;7.70;99.90;;;;;;5058599;28;20062;-87
2021/11/21 11:20:22;;;;;;;7.25;6.00;;;7.70;99.90;;;;;;5058829;28;20050;-88
2021/11/21 11:22:49;;;;;;;8.32;6.85;;;7.80;99.90;;;;;;5058381;28;20059;-88
2021/11/21 11:25:29;;;;;;;8.15;7.05;;;7.80;99.90;;;;;;5058400;28;20396;-87
2021/11/21 11:28:14;;;;;;;10.85;7.25;;;7.90;99.90;;;;;;5058441;28;20531;-87
2021/11/21 11:30:41;;;;;;;8.13;6.95;;;7.90;99.90;;;;;;5074922;28;20045;-87
2021/11/21 11:33:20;;;;;;;10.15;7.35;;;7.90;99.90;;;;;;5058483;28;20055;-88
2021/11/21 11:35:49;;;;;;;8.20;6.63;;;7.90;99.90;;;;;;5058576;28;20048;-86
2021/11/21 11:38:25;;;;;;;10.38;7.07;;;7.90;99.90;;;;;;5076235;28;20284;-87
2021/11/21 11:40:57;;;;;;;8.02;6.70;;;8.00;99.90;;;;;;5058383;28;20460;-87
2021/11/21 11:43:30;;;;;;;8.05;6.45;;;8.00;99.90;;;;;;5058794;28;20048;-88
2021/11/21 11:46:02;;;;;;;;;;;8.10;99.90;;;;;;5068336;28;20053;-87
2021/11/21 11:48:29;;;;;;;8.00;6.82;;;8.10;99.90;;;;;;5038762;28;20281;-88
2021/11/21 11:50:56;;;;;;;7.35;6.35;;;8.20;99.90;;;;;;5043582;28;20040;-87
2021/11/21 11:53:43;;;;;;;7.63;6.20;;;8.20;99.90;;;;;;5057952;28;20046;-88
2021/11/21 11:56:16;;;;;;;8.75;6.90;;;8.20;99.90;;;;;;5075226;28;20052;-88
2021/11/21 11:58:55;;;;;;;9.52;6.88;;;8.30;99.90;;;;;;5058137;28;20515;-88
2021/11/21 12:01:42;;;;;;;7.72;6.80;;;8.30;99.90;;;;;;5058769;28;20597;-88
2021/11/21 12:04:28;;;;;;;7.57;5.60;;;8.40;99.90;;;;;;5058599;28;20049;-86
2021/11/21 12:06:57;;;;;;;5.95;5.30;;;8.40;99.90;;;;;;5075934;28;20060;-88
2021/11/21 12:09:30;;;;;;;6.30;5.70;;;8.40;99.90;;;;;;5058544;28;20052;-88
2021/11/21 12:11:59;;;;;;;7.93;5.72;;;8.40;99.90;;;;;;5058007;28;20048;-87
2021/11/21 12:14:42;;;;;;;7.40;6.10;;;8.40;99.90;;;;;;5058265;28;20049;-88
2021/11/21 12:17:10;;;;;;;6.45;5.85;;;8.50;99.90;;;;;;5075395;28;20135;-87
2021/11/21 12:19:45;;;;;;;6.50;5.45;;;8.50;99.90;;;;;;5075720;28;20063;-87
2021/11/21 12:22:28;;;;;;;5.93;5.43;;;8.50;99.90;;;;;;5075453;28;20049;-88
2021/11/21 12:25:01;;;;;;;5.85;5.15;;;8.60;99.90;;;;;;5038161;28;20048;-87
2021/11/21 12:27:29;;;;;;;6.18;5.10;;;8.50;99.90;;;;;;5054048;28;20139;-87
2021/11/21 12:30:11;;;;;;;5.53;4.88;;;8.50;99.90;;;;;;5057436;28;20398;-87
2021/11/21 12:32:47;;;;;;;6.38;5.15;;;8.50;99.90;;;;;;5057268;28;20052;-87
2021/11/21 12:35:25;;;;;;;5.50;4.90;;;8.60;99.90;;;;;;5075195;28;20052;-87
2021/11/21 12:37:53;;;;;;;4.85;4.20;;;8.70;99.90;;;;;;5055387;28;20063;-87
2021/11/21 12:40:32;;;;;;;6.22;5.50;;;8.70;99.90;;;;;;5057215;28;20051;-87
2021/11/21 12:43:06;;;;;;;4.90;4.43;;;8.80;99.90;;;;;;5054925;28;20044;-88
2021/11/21 12:45:42;;;;;;;4.88;4.40;;;8.80;99.90;;;;;;5037272;28;20124;-87
2021/11/21 12:48:10;;;;;;;5.60;4.57;;;8.80;99.90;;;;;;5036355;28;20079;-87
2021/11/21 12:50:38;;;;;;;4.80;4.40;;;8.80;99.90;;;;;;5037147;28;20049;-87